Time;durP1;ratioP1;P1;durP2;ratioP2;P2;SDS_P1;SDS_P2;PMS_P1;PMS_P2;Temp;Humidity;BMP_temperature;BMP_pressure;BME280_temperature;BME280_humidity;BME280_pressure;Samples;Min_cycle;Max_cycle;Signal;HPM_P1;HPM_P2
2022/04/11 00:01:48;;;;;;;0.60;0.60;;;0.40;99.90;;;;;;5010403;28;20043;-73
2022/04/11 00:04:14;;;;;;;0.68;0.68;;;0.40;99.90;;;;;;5006093;28;20429;-73
2022/04/11 00:06:39;;;;;;;0.50;0.50;;;0.40;99.90;;;;;;5006148;28;20045;-74
2022/04/11 00:09:05;;;;;;;0.70;0.70;;;0.40;99.90;;;;;;5009962;28;20048;-74
2022/04/11 00:11:30;;;;;;;1.10;1.10;;;0.40;99.90;;;;;;4998994;28;20527;-73
2022/04/11 00:13:56;;;;;;;0.70;0.70;;;0.30;99.90;;;;;;5008828;28;20133;-74
2022/04/11 00:16:22;;;;;;;0.75;0.75;;;0.30;99.90;;;;;;5009175;28;20119;-74
2022/04/11 00:18:48;;;;;;;0.70;0.70;;;0.30;99.90;;;;;;4993545;28;20409;-74
2022/04/11 00:21:14;;;;;;;1.58;1.48;;;0.30;99.90;;;;;;5010609;28;20050;-74
2022/04/11 00:23:39;;;;;;;0.50;0.50;;;0.30;99.90;;;;;;5013663;28;20045;-73
2022/04/11 00:26:05;;;;;;;0.70;0.70;;;0.30;99.90;;;;;;4991768;28;20045;-73
2022/04/11 00:28:30;;;;;;;0.50;0.50;;;0.30;99.90;;;;;;5006315;28;20528;-73
2022/04/11 00:30:56;;;;;;;0.50;0.50;;;0.20;99.90;;;;;;5013460;28;20037;-73
2022/04/11 00:33:21;;;;;;;0.70;0.70;;;0.20;99.90;;;;;;5013500;28;20104;-73
2022/04/11 00:35:47;;;;;;;0.60;0.60;;;0.20;99.90;;;;;;4997087;28;20038;-73
2022/04/11 00:38:13;;;;;;;0.77;0.77;;;0.20;99.90;;;;;;5013258;28;20504;-73
2022/04/11 00:40:39;;;;;;;2.75;1.55;;;0.20;99.90;;;;;;5013726;28;20033;-73
2022/04/11 00:43:05;;;;;;;0.60;0.60;;;0.20;99.90;;;;;;5013469;28;20120;-73
2022/04/11 00:45:30;;;;;;;1.17;1.17;;;0.20;99.90;;;;;;5013888;28;20077;-73
2022/04/11 00:47:56;;;;;;;0.60;0.60;;;0.10;99.90;;;;;;4994788;28;20046;-73
2022/04/11 00:50:22;;;;;;;0.50;0.50;;;0.10;99.90;;;;;;4990110;28;20496;-73
2022/04/11 00:52:50;;;;;;;0.50;0.50;;;0.10;99.90;;;;;;4995734;28;20045;-73
2022/04/11 00:55:21;;;;;;;0.60;0.60;;;0.10;99.90;;;;;;5010536;28;20052;-73
2022/04/11 00:57:48;;;;;;;0.50;0.50;;;0.00;99.90;;;;;;5012632;28;20119;-73
2022/04/11 01:00:14;;;;;;;0.60;0.60;;;0.00;99.90;;;;;;5012930;28;20037;-73
2022/04/11 01:02:40;;;;;;;1.52;1.45;;;0.00;99.90;;;;;;5028675;28;20065;-73
2022/04/11 01:05:08;;;;;;;1.45;1.45;;;0.00;99.90;;;;;;5012976;28;20048;-73
2022/04/11 01:07:35;;;;;;;0.60;0.60;;;0.00;99.90;;;;;;4996334;28;20048;-73
2022/04/11 01:10:02;;;;;;;0.60;0.60;;;0.00;99.90;;;;;;4996727;28;20578;-73
2022/04/11 01:12:27;;;;;;;0.52;0.52;;;0.00;99.90;;;;;;4996855;28;20053;-73
2022/04/11 01:14:53;;;;;;;0.60;0.60;;;0.00;99.90;;;;;;4996898;28;20045;-73
2022/04/11 01:17:19;;;;;;;0.60;0.60;;;0.00;99.90;;;;;;4996558;28;20635;-73
2022/04/11 01:19:45;;;;;;;0.57;0.57;;;0.00;99.90;;;;;;5007566;28;20034;-73
2022/04/11 01:22:10;;;;;;;0.70;0.70;;;-0.10;99.90;;;;;;4995174;28;20123;-73
2022/04/11 01:24:37;;;;;;;0.75;0.75;;;0.00;99.90;;;;;;4997143;28;20493;-73
2022/04/11 01:27:03;;;;;;;1.00;1.00;;;-0.10;99.90;;;;;;4996213;28;20449;-73
2022/04/11 01:29:28;;;;;;;0.73;0.73;;;-0.10;99.90;;;;;;5011903;28;20099;-73
2022/04/11 01:31:54;;;;;;;0.80;0.80;;;-0.10;99.90;;;;;;5012401;28;20045;-73
2022/04/11 01:34:19;;;;;;;0.95;0.95;;;-0.10;99.90;;;;;;4995284;28;20041;-73
2022/04/11 01:36:45;;;;;;;1.10;1.10;;;-0.10;99.90;;;;;;4996563;28;20047;-73
2022/04/11 01:39:11;;;;;;;1.30;1.30;;;-0.10;99.90;;;;;;5012237;28;20321;-73
2022/04/11 01:41:36;;;;;;;1.10;1.10;;;-0.20;99.90;;;;;;5012495;28;20049;-73
2022/04/11 01:44:02;;;;;;;1.25;1.25;;;-0.20;99.90;;;;;;5011950;28;20520;-74
2022/04/11 01:46:27;;;;;;;1.40;1.40;;;-0.20;99.90;;;;;;5010149;28;20120;-73
2022/04/11 01:48:53;;;;;;;1.42;1.42;;;-0.20;99.90;;;;;;5009387;28;20042;-73
2022/04/11 01:51:19;;;;;;;1.30;1.30;;;-0.20;99.90;;;;;;4999673;28;20037;-74
2022/04/11 01:53:44;;;;;;;1.05;1.02;;;-0.20;99.90;;;;;;4996083;28;20410;-74
2022/04/11 01:56:10;;;;;;;0.93;0.93;;;-0.20;99.90;;;;;;5012015;28;20037;-73
2022/04/11 01:58:36;;;;;;;0.90;0.90;;;-0.20;99.90;;;;;;5011565;28;20140;-74
2022/04/11 02:01:01;;;;;;;0.80;0.80;;;-0.10;99.90;;;;;;5011320;28;20045;-75
2022/04/11 02:03:27;;;;;;;1.25;1.25;;;-0.10;99.90;;;;;;5012349;28;20044;-74
2022/04/11 02:05:53;;;;;;;1.45;1.45;;;-0.10;99.90;;;;;;5029547;28;20112;-74
2022/04/11 02:08:19;;;;;;;0.90;0.90;;;-0.10;99.90;;;;;;5022628;28;20045;-74
2022/04/11 02:10:46;;;;;;;0.90;0.90;;;-0.10;99.90;;;;;;5009255;28;20042;-74
2022/04/11 02:13:11;;;;;;;0.90;0.90;;;0.00;99.90;;;;;;5008678;28;20095;-74
2022/04/11 02:15:37;;;;;;;0.90;0.90;;;-0.10;99.90;;;;;;4995590;28;20049;-74
2022/04/11 02:18:03;;;;;;;0.80;0.80;;;-0.10;99.90;;;;;;5012104;28;20037;-74
2022/04/11 02:20:30;;;;;;;0.90;0.90;;;-0.10;99.90;;;;;;5011580;28;20037;-73
2022/04/11 02:22:59;;;;;;;0.90;0.90;;;-0.10;99.90;;;;;;5010327;28;20048;-74
2022/04/11 02:25:31;;;;;;;2.08;1.85;;;-0.10;99.90;;;;;;5008263;28;20045;-73
2022/04/11 02:27:57;;;;;;;1.40;1.40;;;-0.10;99.90;;;;;;4992040;28;20056;-74
2022/04/11 02:30:24;;;;;;;1.30;1.30;;;0.00;99.90;;;;;;4991871;28;20071;-74
2022/04/11 02:32:51;;;;;;;1.00;1.00;;;0.00;99.90;;;;;;5006579;28;20042;-74
2022/04/11 02:35:17;;;;;;;1.00;1.00;;;-0.10;99.90;;;;;;4991659;28;20115;-74
2022/04/11 02:37:44;;;;;;;1.08;1.08;;;-0.10;99.90;;;;;;5008519;28;20037;-72
2022/04/11 02:40:12;;;;;;;1.00;1.00;;;-0.10;99.90;;;;;;5007709;28;20049;-72
2022/04/11 02:42:44;;;;;;;1.30;1.30;;;-0.10;99.90;;;;;;4991277;28;20038;-72
2022/04/11 02:45:10;;;;;;;1.10;1.10;;;-0.20;99.90;;;;;;4991510;28;20075;-72
2022/04/11 02:47:36;;;;;;;1.10;1.10;;;-0.20;99.90;;;;;;4990531;28;20126;-72
2022/04/11 02:50:02;;;;;;;1.30;1.30;;;-0.20;99.90;;;;;;4991868;28;20133;-72
2022/04/11 02:52:29;;;;;;;1.00;1.00;;;-0.20;99.90;;;;;;4986098;28;20049;-73
2022/04/11 02:54:56;;;;;;;1.10;1.10;;;-0.20;99.90;;;;;;5003133;28;20142;-73
2022/04/11 02:57:22;;;;;;;1.10;1.10;;;-0.30;99.90;;;;;;4981074;28;20473;-73
2022/04/11 02:59:49;;;;;;;1.10;1.10;;;-0.20;99.90;;;;;;4987218;28;20409;-73
2022/04/11 03:02:14;;;;;;;1.13;1.13;;;-0.20;99.90;;;;;;4998368;28;20124;-73
2022/04/11 03:04:40;;;;;;;1.90;1.73;;;-0.20;99.90;;;;;;5007372;28;20140;-73
2022/04/11 03:07:06;;;;;;;1.40;1.40;;;-0.20;99.90;;;;;;4991929;28;20038;-72
2022/04/11 03:09:32;;;;;;;1.45;1.45;;;-0.20;99.90;;;;;;4990978;28;20125;-73
2022/04/11 03:11:58;;;;;;;1.50;1.50;;;-0.20;99.90;;;;;;5006151;28;20482;-72
2022/04/11 03:14:24;;;;;;;1.20;1.20;;;-0.20;99.90;;;;;;5007964;28;20129;-73
2022/04/11 03:16:49;;;;;;;1.27;1.27;;;-0.30;99.90;;;;;;4991327;28;20037;-73
2022/04/11 03:19:15;;;;;;;1.58;1.55;;;-0.30;99.90;;;;;;4985277;28;20041;-72
2022/04/11 03:21:41;;;;;;;1.33;1.33;;;-0.30;99.90;;;;;;4989709;28;20042;-72
2022/04/11 03:24:07;;;;;;;1.10;1.10;;;-0.30;99.90;;;;;;5004255;28;20687;-72
2022/04/11 03:26:32;;;;;;;1.00;1.00;;;-0.30;99.90;;;;;;5002518;28;20046;-73
2022/04/11 03:28:58;;;;;;;1.25;1.25;;;-0.30;99.90;;;;;;4991226;28;20046;-73
2022/04/11 03:31:23;;;;;;;1.40;1.40;;;-0.20;99.90;;;;;;5007565;28;20045;-73
2022/04/11 03:33:49;;;;;;;1.50;1.50;;;-0.20;99.90;;;;;;4990110;28;21394;-73
2022/04/11 03:36:14;;;;;;;1.30;1.30;;;-0.10;99.90;;;;;;5006748;28;20144;-73
2022/04/11 03:38:40;;;;;;;1.40;1.40;;;0.00;99.90;;;;;;5007415;28;20041;-73
2022/04/11 03:41:06;;;;;;;1.40;1.40;;;0.00;99.90;;;;;;5006945;28;20137;-73
2022/04/11 03:43:31;;;;;;;1.10;1.10;;;0.10;99.90;;;;;;4989136;28;20034;-73
2022/04/11 03:45:57;;;;;;;1.20;1.20;;;0.10;99.90;;;;;;4990936;28;20041;-72
2022/04/11 03:48:22;;;;;;;1.40;1.40;;;0.10;99.90;;;;;;4989807;28;20046;-73
2022/04/11 03:50:48;;;;;;;1.73;1.70;;;0.20;99.90;;;;;;5003120;28;20037;-73
2022/04/11 03:53:16;;;;;;;1.40;1.40;;;0.30;99.90;;;;;;4988586;28;20049;-74
2022/04/11 03:55:42;;;;;;;1.80;1.70;;;0.30;99.90;;;;;;4988469;28;20046;-74
2022/04/11 03:58:07;;;;;;;1.33;1.33;;;0.30;99.90;;;;;;4990990;28;20045;-74
2022/04/11 04:00:33;;;;;;;1.52;1.52;;;0.40;99.90;;;;;;5007097;28;20037;-74
2022/04/11 04:03:06;;;;;;;1.20;1.20;;;0.40;99.90;;;;;;5000875;28;20590;-74
2022/04/11 04:05:32;;;;;;;1.30;1.30;;;0.40;99.90;;;;;;5006740;28;20048;-74
2022/04/11 04:07:58;;;;;;;1.40;1.40;;;0.50;99.90;;;;;;4990763;28;20037;-74
2022/04/11 04:10:26;;;;;;;1.35;1.35;;;0.50;99.90;;;;;;5007289;28;20042;-74
2022/04/11 04:13:02;;;;;;;1.30;1.30;;;0.50;99.90;;;;;;4990020;28;20042;-74
2022/04/11 04:15:28;;;;;;;1.50;1.50;;;0.50;99.90;;;;;;5001951;28;20100;-74
2022/04/11 04:17:55;;;;;;;1.40;1.40;;;0.60;99.90;;;;;;5006989;28;20505;-74
2022/04/11 04:20:21;;;;;;;1.63;1.63;;;0.60;99.90;;;;;;4989970;28;20042;-74
2022/04/11 04:22:47;;;;;;;1.60;1.60;;;0.60;99.90;;;;;;5008663;28;20108;-73
2022/04/11 04:25:12;;;;;;;1.10;1.10;;;0.60;99.90;;;;;;5003799;28;20064;-73
2022/04/11 04:27:38;;;;;;;1.40;1.40;;;0.60;99.90;;;;;;5006460;28;20092;-73
2022/04/11 04:30:05;;;;;;;1.30;1.30;;;0.70;99.90;;;;;;5006882;28;20046;-73
2022/04/11 04:32:31;;;;;;;1.30;1.30;;;0.70;99.90;;;;;;5007054;28;20050;-73
2022/04/11 04:34:56;;;;;;;1.10;1.10;;;0.70;99.90;;;;;;5007176;28;20044;-73
2022/04/11 04:37:22;;;;;;;1.20;1.20;;;0.70;99.90;;;;;;4985314;28;20049;-73
2022/04/11 04:39:47;;;;;;;1.23;1.23;;;0.70;99.90;;;;;;5005655;28;20136;-73
2022/04/11 04:42:22;;;;;;;1.40;1.40;;;0.80;99.90;;;;;;5005472;28;20142;-73
2022/04/11 04:44:48;;;;;;;1.35;1.35;;;0.80;99.90;;;;;;5006927;28;20476;-72
2022/04/11 04:47:17;;;;;;;1.20;1.20;;;0.80;99.90;;;;;;5005060;28;20042;-72
2022/04/11 04:49:43;;;;;;;1.30;1.30;;;0.90;99.90;;;;;;4981107;28;20089;-72
2022/04/11 04:52:09;;;;;;;1.30;1.30;;;0.90;99.90;;;;;;4981327;28;20052;-74
2022/04/11 04:54:35;;;;;;;1.50;1.50;;;0.90;99.90;;;;;;4981590;28;20046;-73
2022/04/11 04:57:01;;;;;;;1.30;1.30;;;0.90;99.90;;;;;;4982711;28;20158;-73
2022/04/11 04:59:27;;;;;;;1.20;1.20;;;0.90;99.90;;;;;;5001548;28;20049;-73
2022/04/11 05:01:52;;;;;;;1.23;1.23;;;1.00;99.90;;;;;;5006111;28;20081;-74
2022/04/11 05:04:18;;;;;;;1.20;1.20;;;1.00;99.90;;;;;;4990549;28;20490;-73
2022/04/11 05:06:43;;;;;;;1.27;1.27;;;1.00;99.90;;;;;;5006350;28;20081;-73
2022/04/11 05:09:09;;;;;;;1.30;1.30;;;1.00;99.90;;;;;;5010936;28;20045;-72
2022/04/11 05:11:35;;;;;;;1.40;1.40;;;1.00;99.90;;;;;;5009248;28;20068;-73
2022/04/11 05:14:00;;;;;;;1.40;1.40;;;1.10;99.90;;;;;;5009704;28;20261;-73
2022/04/11 05:16:26;;;;;;;1.25;1.25;;;1.10;99.90;;;;;;4993711;28;20490;-73
2022/04/11 05:18:51;;;;;;;2.03;1.92;;;1.10;99.90;;;;;;4991044;28;20044;-73
2022/04/11 05:21:17;;;;;;;1.50;1.50;;;1.20;99.90;;;;;;4992973;28;20046;-73
2022/04/11 05:23:43;;;;;;;1.60;1.60;;;1.20;99.90;;;;;;4999453;28;20426;-72
2022/04/11 05:26:08;;;;;;;1.20;1.20;;;1.30;99.90;;;;;;5008289;28;20057;-72
2022/04/11 05:28:34;;;;;;;1.40;1.40;;;1.30;99.90;;;;;;5000910;28;20050;-73
2022/04/11 05:31:00;;;;;;;1.05;1.05;;;1.40;99.90;;;;;;4991928;28;20054;-73
2022/04/11 05:33:26;;;;;;;1.30;1.30;;;1.50;99.90;;;;;;4993601;28;20041;-73
2022/04/11 05:35:52;;;;;;;1.27;1.27;;;1.50;99.90;;;;;;5008819;28;20058;-73
2022/04/11 05:38:19;;;;;;;1.45;1.45;;;1.60;99.90;;;;;;5008694;28;20053;-73
2022/04/11 05:40:45;;;;;;;1.30;1.30;;;1.70;99.90;;;;;;5006780;28;20042;-73
2022/04/11 05:43:13;;;;;;;2.47;1.88;;;1.70;99.90;;;;;;5010046;28;20414;-73
2022/04/11 05:45:39;;;;;;;1.50;1.50;;;1.80;99.90;;;;;;4992859;28;20040;-72
2022/04/11 05:48:05;;;;;;;1.60;1.60;;;1.90;99.90;;;;;;4998726;28;20049;-72
2022/04/11 05:50:31;;;;;;;1.70;1.70;;;1.90;99.90;;;;;;5000244;28;20046;-72
2022/04/11 05:52:56;;;;;;;1.77;1.77;;;2.00;99.90;;;;;;4988207;28;20052;-72
2022/04/11 05:55:23;;;;;;;1.50;1.50;;;2.10;99.90;;;;;;4988904;28;20120;-72
2022/04/11 05:57:49;;;;;;;1.70;1.70;;;2.20;99.90;;;;;;4991006;28;20053;-72
2022/04/11 06:00:15;;;;;;;1.50;1.50;;;2.20;99.90;;;;;;4990782;28;20037;-72
2022/04/11 06:02:41;;;;;;;1.98;1.88;;;2.30;99.90;;;;;;5006683;28;20245;-72
2022/04/11 06:05:07;;;;;;;1.10;1.10;;;2.40;99.90;;;;;;5009477;28;20052;-72
2022/04/11 06:07:34;;;;;;;1.30;1.30;;;2.50;99.90;;;;;;4988372;28;20045;-72
2022/04/11 06:10:00;;;;;;;1.30;1.30;;;2.50;99.90;;;;;;5009023;28;20056;-72
2022/04/11 06:12:26;;;;;;;1.80;1.73;;;2.60;99.90;;;;;;4998619;28;20042;-72
2022/04/11 06:14:55;;;;;;;1.60;1.60;;;2.60;99.90;;;;;;5007379;28;20066;-72
2022/04/11 06:17:24;;;;;;;1.30;1.30;;;2.70;99.90;;;;;;4990279;28;20096;-72
2022/04/11 06:19:54;;;;;;;1.30;1.30;;;2.80;99.90;;;;;;5008042;28;20046;-72
2022/04/11 06:22:20;;;;;;;1.13;1.13;;;2.90;99.90;;;;;;5004810;28;20416;-72
2022/04/11 06:24:47;;;;;;;1.30;1.30;;;3.00;99.90;;;;;;5008918;28;20453;-72
2022/04/11 06:27:13;;;;;;;1.45;1.45;;;3.10;99.90;;;;;;5020198;28;20112;-72
2022/04/11 06:29:38;;;;;;;1.40;1.40;;;3.10;99.90;;;;;;4993698;28;20041;-72
2022/04/11 06:32:05;;;;;;;1.58;1.58;;;3.20;99.90;;;;;;4990455;28;20481;-72
2022/04/11 06:34:36;;;;;;;1.50;1.50;;;3.40;99.90;;;;;;4993265;28;20103;-73
2022/04/11 06:37:02;;;;;;;1.38;1.38;;;3.40;99.90;;;;;;5027859;28;20443;-74
2022/04/11 06:39:29;;;;;;;1.30;1.30;;;3.50;99.90;;;;;;4985004;28;20056;-73
2022/04/11 06:41:55;;;;;;;1.40;1.40;;;3.60;99.90;;;;;;4986394;28;20037;-74
2022/04/11 06:44:21;;;;;;;1.20;1.20;;;3.70;99.90;;;;;;4990127;28;20041;-72
2022/04/11 06:46:47;;;;;;;1.25;1.25;;;3.80;99.90;;;;;;4994992;28;20052;-74
2022/04/11 06:49:13;;;;;;;1.10;1.10;;;4.00;99.90;;;;;;5010384;28;20437;-73
2022/04/11 06:51:38;;;;;;;1.40;1.40;;;4.10;99.90;;;;;;5011469;28;20120;-73
2022/04/11 06:54:04;;;;;;;1.20;1.20;;;4.20;99.90;;;;;;5028596;28;20045;-73
2022/04/11 06:56:30;;;;;;;1.55;1.50;;;4.30;99.90;;;;;;5008003;28;20124;-74
2022/04/11 06:58:56;;;;;;;2.40;1.75;;;4.40;99.90;;;;;;4992033;28;20120;-71
2022/04/11 07:01:21;;;;;;;0.95;0.95;;;4.50;99.90;;;;;;5009300;28;20107;-74
2022/04/11 07:03:47;;;;;;;1.00;1.00;;;4.60;99.90;;;;;;4991448;28;20676;-71
2022/04/11 07:06:13;;;;;;;1.00;1.00;;;4.80;99.90;;;;;;5008240;28;20387;-72
2022/04/11 07:08:39;;;;;;;1.45;1.42;;;4.90;99.90;;;;;;5008376;28;20497;-73
2022/04/11 07:11:06;;;;;;;1.00;1.00;;;5.00;99.90;;;;;;5025756;28;20136;-73
2022/04/11 07:13:32;;;;;;;2.75;1.63;;;5.10;99.90;;;;;;4993798;28;20823;-73
2022/04/11 07:15:58;;;;;;;1.20;1.20;;;5.30;99.90;;;;;;5011391;28;20053;-73
2022/04/11 07:18:27;;;;;;;1.02;1.02;;;5.40;99.90;;;;;;4995069;28;20052;-73
2022/04/11 07:20:53;;;;;;;1.13;1.13;;;5.50;99.90;;;;;;5010834;28;20124;-73
2022/04/11 07:23:19;;;;;;;1.85;1.42;;;5.70;99.90;;;;;;5006709;28;20038;-73
2022/04/11 07:25:45;;;;;;;0.80;0.80;;;5.80;99.90;;;;;;5007534;28;20583;-74
2022/04/11 07:28:11;;;;;;;0.60;0.60;;;6.00;99.90;;;;;;5008643;28;20506;-73
2022/04/11 07:30:37;;;;;;;1.05;1.02;;;6.10;99.90;;;;;;5009508;28;20490;-73
2022/04/11 07:33:03;;;;;;;0.82;0.82;;;6.30;99.90;;;;;;5010570;28;20041;-73
2022/04/11 07:35:29;;;;;;;0.80;0.80;;;6.40;99.90;;;;;;5010514;28;20131;-73
2022/04/11 07:37:57;;;;;;;0.60;0.60;;;6.50;99.90;;;;;;4995003;28;20056;-74
2022/04/11 07:40:24;;;;;;;2.95;1.50;;;6.60;99.90;;;;;;5003687;28;20121;-73
2022/04/11 07:42:51;;;;;;;0.63;0.63;;;6.80;99.90;;;;;;5007729;28;20053;-73
2022/04/11 07:45:18;;;;;;;0.70;0.70;;;6.80;99.90;;;;;;4994390;28;20121;-73
2022/04/11 07:47:44;;;;;;;0.70;0.70;;;6.90;99.90;;;;;;5009326;28;20049;-73
2022/04/11 07:50:09;;;;;;;0.47;0.47;;;7.10;99.90;;;;;;5004037;28;20049;-73
2022/04/11 07:52:39;;;;;;;0.40;0.40;;;7.20;99.90;;;;;;5010369;28;20139;-73
2022/04/11 07:55:07;;;;;;;1.25;1.08;;;7.40;99.90;;;;;;4994807;28;20508;-73
2022/04/11 07:57:32;;;;;;;0.55;0.55;;;7.50;99.90;;;;;;4994678;28;20436;-73
2022/04/11 07:59:58;;;;;;;0.70;0.70;;;7.60;99.90;;;;;;4991687;28;20037;-74
2022/04/11 08:02:25;;;;;;;0.95;0.95;;;7.80;99.90;;;;;;5010501;28;20060;-73
2022/04/11 08:04:52;;;;;;;0.50;0.50;;;8.00;99.90;;;;;;5003913;28;20050;-73
2022/04/11 08:07:17;;;;;;;0.68;0.68;;;8.20;99.90;;;;;;5011567;28;20493;-73
2022/04/11 08:09:43;;;;;;;0.70;0.70;;;8.50;99.90;;;;;;5010457;28;20049;-73
2022/04/11 08:12:09;;;;;;;1.65;1.40;;;8.70;99.90;;;;;;4991055;28;20038;-73
2022/04/11 08:14:35;;;;;;;0.93;0.93;;;8.80;99.90;;;;;;5007645;28;20131;-73
2022/04/11 08:17:03;;;;;;;0.50;0.50;;;8.80;99.90;;;;;;5007096;28;20080;-71
2022/04/11 08:19:32;;;;;;;0.50;0.50;;;9.10;99.90;;;;;;4977151;28;20049;-72
2022/04/11 08:21:58;;;;;;;0.98;0.98;;;9.30;99.90;;;;;;4997415;28;20380;-73
2022/04/11 08:24:24;;;;;;;0.40;0.40;;;9.50;99.90;;;;;;5002819;28;20041;-73
2022/04/11 08:26:49;;;;;;;0.50;0.50;;;9.60;99.90;;;;;;5004417;28;20128;-72
2022/04/11 08:29:17;;;;;;;11.85;1.10;;;9.80;99.90;;;;;;4987263;28;20041;-73
2022/04/11 08:31:43;;;;;;;1.30;1.17;;;9.90;99.90;;;;;;4987923;28;20041;-73
2022/04/11 08:34:09;;;;;;;1.00;0.98;;;9.90;99.90;;;;;;5006514;28;20040;-72
2022/04/11 08:36:35;;;;;;;1.25;1.15;;;9.80;99.90;;;;;;4993022;28;20048;-72
2022/04/11 08:39:00;;;;;;;0.93;0.85;;;9.70;99.90;;;;;;5007242;28;20041;-72
2022/04/11 08:41:33;;;;;;;0.30;0.30;;;9.70;99.90;;;;;;5025488;28;20474;-73
2022/04/11 08:44:04;;;;;;;;;;;9.80;99.90;;;;;;4992764;28;20382;-72
2022/04/11 08:46:31;;;;;;;0.57;0.57;;;10.00;99.90;;;;;;5010143;28;19921;-72
2022/04/11 08:48:58;;;;;;;1.00;0.93;;;10.20;99.90;;;;;;5016154;28;20029;-72
2022/04/11 08:51:24;;;;;;;0.40;0.40;;;10.60;99.90;;;;;;4993223;28;20046;-72
2022/04/11 08:53:51;;;;;;;0.60;0.60;;;11.20;99.90;;;;;;4994113;28;20060;-73
2022/04/11 08:56:17;;;;;;;3.97;0.80;;;12.00;99.90;;;;;;5014448;28;20045;-73
2022/04/11 08:58:43;;;;;;;0.30;0.30;;;12.40;99.90;;;;;;5001794;28;20052;-73
2022/04/11 09:01:08;;;;;;;1.98;1.48;;;13.00;99.80;;;;;;5030497;28;20049;-72
2022/04/11 09:03:34;;;;;;;0.50;0.50;;;13.60;99.90;;;;;;5013053;28;20044;-73
2022/04/11 09:06:08;;;;;;;3.45;1.08;;;14.10;97.70;;;;;;5018991;28;20072;-73
2022/04/11 09:08:48;;;;;;;0.30;0.30;;;14.70;99.90;;;;;;5012196;28;20083;-73
2022/04/11 09:11:25;;;;;;;0.30;0.30;;;15.00;94.30;;;;;;5013698;28;20075;-73
2022/04/11 09:13:52;;;;;;;0.52;0.52;;;15.10;92.60;;;;;;5012823;28;20486;-73
2022/04/11 09:16:19;;;;;;;0.52;0.45;;;15.30;95.30;;;;;;5010349;28;20095;-73
2022/04/11 09:18:49;;;;;;;0.20;0.20;;;15.30;89.90;;;;;;5004250;28;20049;-73
2022/04/11 09:21:16;;;;;;;10.88;0.85;;;15.20;89.20;;;;;;5010065;28;20060;-73
2022/04/11 09:23:41;;;;;;;0.40;0.40;;;15.50;90.40;;;;;;4991142;28;20541;-73
2022/04/11 09:26:17;;;;;;;0.30;0.30;;;15.60;78.60;;;;;;5009988;28;20054;-73
2022/04/11 09:28:43;;;;;;;0.20;0.20;;;15.90;72.20;;;;;;4998544;28;20045;-72
2022/04/11 09:31:08;;;;;;;0.90;0.77;;;16.20;67.00;;;;;;4996639;28;20111;-73
2022/04/11 09:33:39;;;;;;;0.25;0.25;;;16.50;73.70;;;;;;5009426;28;20041;-73
2022/04/11 09:36:05;;;;;;;0.10;0.10;;;16.40;76.30;;;;;;5001941;28;20046;-73
2022/04/11 09:38:38;;;;;;;3.47;0.68;;;16.30;72.50;;;;;;5026863;28;20042;-73
2022/04/11 09:41:05;;;;;;;1.10;1.00;;;16.20;72.10;;;;;;4997504;28;20076;-73
2022/04/11 09:43:32;;;;;;;0.30;0.30;;;16.10;69.40;;;;;;5022482;28;20072;-73
2022/04/11 09:46:02;;;;;;;1.02;0.47;;;16.10;68.40;;;;;;5000342;28;20056;-73
2022/04/11 09:48:32;;;;;;;0.10;0.10;;;16.20;67.30;;;;;;5004426;28;20361;-74
2022/04/11 09:50:59;;;;;;;0.20;0.20;;;16.20;63.30;;;;;;5005701;28;20559;-73
2022/04/11 09:53:30;;;;;;;0.75;0.28;;;16.30;60.20;;;;;;4996909;28;20046;-73
2022/04/11 09:55:58;;;;;;;1.45;1.23;;;16.20;65.90;;;;;;4995000;28;20507;-73
2022/04/11 09:58:24;;;;;;;0.40;0.40;;;16.30;67.60;;;;;;4997477;28;20465;-73
2022/04/11 10:00:51;;;;;;;0.20;0.20;;;16.10;62.20;;;;;;4994117;28;20038;-73
2022/04/11 10:03:20;;;;;;;0.35;0.35;;;15.90;62.40;;;;;;5004092;28;20046;-74
2022/04/11 10:05:46;;;;;;;1.27;1.13;;;15.70;60.60;;;;;;5007473;28;20037;-73
2022/04/11 10:08:15;;;;;;;0.73;0.70;;;15.50;59.30;;;;;;5006597;28;20544;-74
2022/04/11 10:10:41;;;;;;;0.70;0.70;;;15.30;59.60;;;;;;4993858;28;20481;-73
2022/04/11 10:13:12;;;;;;;0.73;0.57;;;15.10;62.20;;;;;;5003111;28;20041;-73
2022/04/11 10:15:39;;;;;;;0.77;0.73;;;15.10;59.40;;;;;;5000927;28;20520;-74
2022/04/11 10:18:07;;;;;;;1.83;1.35;;;15.10;61.60;;;;;;5005779;28;20051;-74
2022/04/11 10:20:38;;;;;;;0.73;0.73;;;15.00;59.20;;;;;;5008675;28;20115;-73
2022/04/11 10:23:12;;;;;;;1.80;0.68;;;14.70;59.40;;;;;;5002872;28;20053;-74
2022/04/11 10:25:45;;;;;;;1.38;0.85;;;14.60;60.90;;;;;;4990727;28;20793;-73
2022/04/11 10:28:18;;;;;;;;;;;14.50;59.10;;;;;;4987113;28;20050;-73
2022/04/11 10:31:01;;;;;;;0.10;0.10;;;14.30;58.30;;;;;;5010490;28;19932;-73
2022/04/11 10:33:45;;;;;;;3.00;0.75;;;14.20;58.30;;;;;;5006985;28;20412;-73
2022/04/11 10:36:34;;;;;;;0.65;0.65;;;14.00;59.50;;;;;;5016183;28;20092;-73
2022/04/11 10:39:26;;;;;;;1.20;1.20;;;14.10;61.40;;;;;;5001169;28;20391;-73
2022/04/11 10:41:54;;;;;;;0.30;0.30;;;14.30;61.10;;;;;;5001987;28;20133;-71
2022/04/11 10:44:39;;;;;;;0.30;0.30;;;14.40;59.90;;;;;;5007748;28;20046;-73
2022/04/11 10:47:08;;;;;;;1.25;1.15;;;14.70;61.70;;;;;;5005956;28;20064;-72
2022/04/11 10:49:49;;;;;;;0.65;0.43;;;14.90;60.10;;;;;;4991384;28;20049;-72
2022/04/11 10:52:35;;;;;;;0.30;0.30;;;14.90;60.60;;;;;;4999860;28;20045;-73
2022/04/11 10:55:18;;;;;;;0.63;0.63;;;15.10;61.70;;;;;;4985011;28;20099;-73
2022/04/11 10:57:44;;;;;;;0.70;0.57;;;15.20;58.30;;;;;;5014162;28;20045;-71
2022/04/11 11:00:23;;;;;;;0.47;0.47;;;15.30;60.50;;;;;;4997198;28;20041;-72
2022/04/11 11:03:01;;;;;;;1.13;1.05;;;15.40;60.60;;;;;;5007661;28;20115;-73
2022/04/11 11:05:42;;;;;;;1.10;1.00;;;15.20;56.50;;;;;;5007564;28;20029;-72
2022/04/11 11:08:13;;;;;;;2.08;0.55;;;14.90;57.50;;;;;;4988617;28;20044;-73
2022/04/11 11:11:00;;;;;;;1.13;0.85;;;14.70;58.10;;;;;;5007523;28;20072;-72
2022/04/11 11:13:30;;;;;;;1.65;1.05;;;14.50;58.80;;;;;;5008110;28;20045;-73
2022/04/11 11:16:06;;;;;;;1.55;1.25;;;14.60;58.50;;;;;;4992076;28;20041;-72
2022/04/11 11:18:52;;;;;;;1.55;0.50;;;14.70;59.40;;;;;;4997265;28;20132;-73
2022/04/11 11:21:27;;;;;;;0.60;0.60;;;14.70;60.10;;;;;;4990393;28;20085;-73
2022/04/11 11:24:08;;;;;;;3.55;1.75;;;14.90;62.40;;;;;;5006057;28;20041;-72
2022/04/11 11:26:51;;;;;;;5.68;1.05;;;15.00;57.50;;;;;;4998651;28;20175;-73
2022/04/11 11:29:20;;;;;;;4.05;1.65;;;14.80;58.00;;;;;;4999334;28;20132;-72
2022/04/11 11:31:48;;;;;;;0.77;0.77;;;14.80;59.70;;;;;;5009248;28;20038;-73
2022/04/11 11:34:16;;;;;;;0.63;0.60;;;14.70;59.70;;;;;;4995104;28;20096;-72
2022/04/11 11:36:42;;;;;;;1.40;1.08;;;14.70;59.70;;;;;;4993628;28;20103;-72
2022/04/11 11:39:22;;;;;;;1.65;0.85;;;14.70;57.70;;;;;;4991181;28;20052;-72
2022/04/11 11:41:52;;;;;;;1.85;0.95;;;14.60;58.50;;;;;;4984609;28;20398;-72
2022/04/11 11:44:19;;;;;;;0.63;0.63;;;14.50;57.90;;;;;;5019858;28;20046;-72
2022/04/11 11:47:11;;;;;;;3.72;0.95;;;14.50;60.10;;;;;;5022564;28;20072;-71
2022/04/11 11:49:40;;;;;;;1.33;1.23;;;14.80;60.70;;;;;;5000789;28;20108;-72
2022/04/11 11:52:16;;;;;;;0.55;0.30;;;14.90;60.30;;;;;;4998272;28;20045;-72
2022/04/11 11:54:44;;;;;;;0.65;0.65;;;15.20;62.00;;;;;;5001404;28;20056;-72
2022/04/11 11:57:17;;;;;;;0.45;0.45;;;15.40;61.50;;;;;;4985441;28;20057;-72
2022/04/11 11:59:48;;;;;;;0.60;0.57;;;15.60;60.40;;;;;;4984990;28;20068;-72
2022/04/11 12:04:58;;;;;;;2.58;1.40;;;15.30;57.80;;;;;;5001473;28;20445;-71
2022/04/11 12:07:24;;;;;;;0.30;0.30;;;15.40;58.50;;;;;;4998876;28;20041;-72
2022/04/11 12:09:50;;;;;;;0.40;0.40;;;15.30;56.70;;;;;;4993634;28;20045;-71
2022/04/11 12:12:19;;;;;;;8.60;0.98;;;15.30;58.60;;;;;;4993189;28;20053;-72
2022/04/11 12:15:06;;;;;;;3.63;1.33;;;15.30;59.70;;;;;;4996076;28;20080;-72
2022/04/11 12:17:44;;;;;;;2.67;1.75;;;15.30;57.50;;;;;;5010632;28;20088;-72
2022/04/11 12:20:14;;;;;;;1.00;0.95;;;15.20;56.50;;;;;;5022690;28;20045;-71
2022/04/11 12:22:41;;;;;;;1.98;1.05;;;15.10;57.40;;;;;;5026662;28;20038;-72
2022/04/11 12:25:27;;;;;;;0.60;0.60;;;15.20;58.00;;;;;;4994800;28;20123;-72
2022/04/11 12:28:19;;;;;;;0.10;0.10;;;15.30;59.90;;;;;;4993973;28;20092;-72
2022/04/11 12:30:48;;;;;;;2.13;1.73;;;15.30;57.40;;;;;;5013737;28;20125;-72
2022/04/11 12:33:36;;;;;;;0.43;0.43;;;15.40;59.70;;;;;;4993226;28;20037;-73
2022/04/11 12:36:12;;;;;;;1.67;1.20;;;15.40;57.10;;;;;;5008767;28;20401;-72
2022/04/11 12:38:48;;;;;;;0.60;0.60;;;15.40;56.00;;;;;;5032091;28;20049;-72
2022/04/11 12:41:40;;;;;;;1.58;0.98;;;15.30;57.40;;;;;;4992051;28;20033;-72
2022/04/11 12:44:17;;;;;;;0.70;0.70;;;15.20;58.20;;;;;;5009917;28;20107;-72
2022/04/11 12:46:43;;;;;;;1.05;0.95;;;15.20;57.90;;;;;;5015549;28;20124;-73
2022/04/11 12:49:10;;;;;;;0.60;0.60;;;15.20;58.40;;;;;;4997995;28;20128;-72
2022/04/11 12:51:37;;;;;;;1.35;1.15;;;15.20;56.60;;;;;;4994396;28;20041;-72
2022/04/11 12:54:05;;;;;;;2.10;1.55;;;15.20;57.10;;;;;;4998167;28;20187;-72
2022/04/11 12:56:39;;;;;;;0.95;0.93;;;15.20;56.60;;;;;;5013694;28;20037;-72
2022/04/11 12:59:06;;;;;;;0.10;0.10;;;15.10;57.70;;;;;;4993099;28;20050;-71
2022/04/11 13:01:50;;;;;;;0.30;0.30;;;15.10;58.50;;;;;;5018110;28;20492;-72